Terminal Aerodrome Forecast
Issued by NWS Goodland, KS

Home | Current Version | Previous Version | Text Only | Print | Product List | Glossary On
Versions: 1 2 3 4 5 6 7 8 9 10 11 12 13 14 15
000
FTUS43 KGLD 270300 AAA
TAFGLD
TAF AMD
KGLD 270333Z 2704/2724 04009KT P6SM BKN100
     FM271000 04010KT P6SM BKN035
     FM271500 05010KT P6SM SCT050=

USA.gov is the U.S. government's official web portal to all federal, state and local government web resources and services.